createdAt,value
2018-09-14T00:00:23.113Z,19.60
2018-09-14T00:02:54.333Z,19.43
2018-09-14T00:05:25.581Z,18.80
2018-09-14T00:07:56.793Z,20.23
2018-09-14T00:10:28.069Z,18.83
2018-09-14T00:12:59.305Z,18.63
2018-09-14T00:15:30.536Z,18.17
2018-09-14T00:18:01.765Z,17.80
2018-09-14T00:20:33.001Z,17.30
2018-09-14T00:23:04.225Z,17.70
2018-09-14T00:25:35.451Z,17.60
2018-09-14T00:28:06.661Z,17.13
2018-09-14T00:30:37.873Z,17.37
2018-09-14T00:33:09.117Z,17.83
2018-09-14T00:35:40.372Z,17.70
2018-09-14T00:38:11.598Z,16.93
2018-09-14T00:40:43.012Z,16.17
2018-09-14T00:43:14.365Z,16.23
2018-09-14T00:45:45.591Z,16.37
2018-09-14T00:48:16.945Z,17.30
2018-09-14T00:50:48.193Z,15.20
2018-09-14T00:53:19.401Z,16.53
2018-09-14T00:55:50.636Z,16.13
2018-09-14T00:58:21.880Z,15.67
2018-09-14T01:00:53.111Z,15.87
2018-09-14T01:03:24.325Z,15.90
2018-09-14T01:05:55.546Z,15.37
2018-09-14T01:08:26.784Z,16.17
2018-09-14T01:10:58.025Z,14.97
2018-09-14T01:13:29.272Z,15.53
2018-09-14T01:16:00.497Z,15.87
2018-09-14T01:18:31.734Z,14.53
2018-09-14T01:21:02.971Z,15.13
2018-09-14T01:23:34.184Z,15.77
2018-09-14T01:26:05.595Z,15.57
2018-09-14T01:28:36.816Z,15.20
2018-09-14T01:31:08.050Z,15.13
2018-09-14T01:33:39.260Z,16.10
2018-09-14T01:36:11.149Z,15.73
2018-09-14T01:38:42.450Z,18.37
2018-09-14T01:41:13.695Z,15.83
2018-09-14T01:43:44.931Z,15.20
2018-09-14T01:46:16.195Z,16.90
2018-09-14T01:48:47.430Z,15.77
2018-09-14T01:51:18.650Z,16.43
2018-09-14T01:53:49.877Z,16.53
2018-09-14T01:56:21.100Z,16.37
2018-09-14T01:58:52.408Z,16.43
2018-09-14T02:01:23.653Z,16.00
2018-09-14T02:03:54.870Z,16.87
2018-09-14T02:06:26.596Z,18.37
2018-09-14T02:08:57.809Z,18.00
2018-09-14T02:11:29.044Z,18.17
2018-09-14T02:14:00.259Z,16.27
2018-09-14T02:16:31.574Z,16.57
2018-09-14T02:19:02.938Z,16.50
2018-09-14T02:21:34.187Z,17.87
2018-09-14T02:24:05.417Z,18.10
2018-09-14T02:26:36.621Z,18.23
2018-09-14T02:29:07.841Z,17.93
2018-09-14T02:31:39.177Z,18.10
2018-09-14T02:34:10.378Z,16.90
2018-09-14T02:36:41.631Z,16.13
2018-09-14T02:39:12.841Z,17.53
2018-09-14T02:41:44.296Z,16.13
2018-09-14T02:44:15.499Z,16.50
2018-09-14T02:46:46.734Z,17.17
2018-09-14T02:49:17.973Z,17.93
2018-09-14T02:51:49.191Z,17.07
2018-09-14T02:54:20.506Z,16.80
2018-09-14T02:56:51.717Z,19.50
2018-09-14T02:59:22.955Z,18.67
2018-09-14T03:01:54.166Z,18.00
2018-09-14T03:04:25.408Z,16.63
2018-09-14T03:06:56.689Z,18.97
2018-09-14T03:09:27.902Z,18.23
2018-09-14T03:11:59.132Z,16.10
2018-09-14T03:14:30.463Z,17.23
2018-09-14T03:17:01.700Z,17.63
2018-09-14T03:19:33.002Z,16.50
2018-09-14T03:22:04.225Z,18.50
2018-09-14T03:24:35.445Z,17.23
2018-09-14T03:27:06.714Z,16.67
2018-09-14T03:29:37.923Z,16.23
2018-09-14T03:32:09.251Z,16.40
2018-09-14T03:34:40.459Z,15.23
2018-09-14T03:37:11.677Z,16.50
2018-09-14T03:39:42.886Z,16.90
2018-09-14T03:42:14.143Z,16.47
2018-09-14T03:44:45.418Z,14.13
2018-09-14T03:47:16.622Z,16.43
2018-09-14T03:49:47.850Z,15.07
2018-09-14T03:52:19.095Z,16.07
2018-09-14T03:54:50.361Z,15.77
2018-09-14T03:57:21.585Z,15.13
2018-09-14T03:59:52.795Z,14.60
2018-09-14T04:02:24.020Z,16.20
2018-09-14T04:04:55.243Z,16.30
2018-09-14T04:07:26.517Z,16.70
2018-09-14T04:09:57.744Z,15.90
2018-09-14T04:12:28.969Z,17.17
2018-09-14T04:15:00.251Z,16.23
2018-09-14T04:17:31.474Z,16.33
2018-09-14T04:20:02.718Z,15.70
2018-09-14T04:22:33.925Z,16.70
2018-09-14T04:25:05.145Z,16.67
2018-09-14T04:27:36.366Z,17.60
2018-09-14T04:30:07.592Z,20.37
2018-09-14T04:32:38.842Z,18.03
2018-09-14T04:35:10.172Z,18.13
2018-09-14T04:37:41.399Z,19.10
2018-09-14T04:40:12.606Z,17.77
2018-09-14T04:42:43.822Z,18.60
2018-09-14T04:45:15.038Z,16.77
2018-09-14T04:47:46.246Z,16.87
2018-09-14T04:50:17.457Z,17.83
2018-09-14T04:52:48.669Z,18.90
2018-09-14T04:55:19.893Z,19.90
2018-09-14T04:57:51.200Z,20.40
2018-09-14T05:00:22.450Z,18.97
2018-09-14T05:02:53.698Z,20.00
2018-09-14T05:05:24.902Z,19.43
2018-09-14T05:07:56.117Z,18.90
2018-09-14T05:10:27.330Z,20.93
2018-09-14T05:12:58.554Z,20.87
2018-09-14T05:15:29.756Z,21.57
2018-09-14T05:18:02.485Z,19.77
2018-09-14T05:20:33.725Z,21.03
2018-09-14T05:23:04.985Z,21.03
2018-09-14T05:25:36.211Z,21.90
2018-09-14T05:28:07.421Z,22.40
2018-09-14T05:30:38.660Z,23.60
2018-09-14T05:33:09.869Z,23.00
2018-09-14T05:35:41.096Z,21.77
2018-09-14T05:38:12.521Z,23.90
2018-09-14T05:40:43.934Z,22.03
2018-09-14T05:43:15.218Z,22.63
2018-09-14T05:45:47.612Z,23.13
2018-09-14T05:48:18.802Z,22.70
2018-09-14T05:50:51.587Z,22.73
2018-09-14T05:53:22.797Z,24.57
2018-09-14T05:55:54.054Z,24.47
2018-09-14T05:58:25.278Z,24.30
2018-09-14T06:00:56.662Z,24.60
2018-09-14T06:03:27.880Z,21.43
2018-09-14T06:05:59.131Z,24.70
2018-09-14T06:08:30.381Z,24.33
2018-09-14T06:11:01.582Z,23.87
2018-09-14T06:13:32.790Z,25.93
2018-09-14T06:16:04.053Z,23.43
2018-09-14T06:18:35.275Z,24.83
2018-09-14T06:21:06.498Z,23.30
2018-09-14T06:23:37.758Z,24.67
2018-09-14T06:26:08.980Z,25.70
2018-09-14T06:28:40.199Z,24.33
2018-09-14T06:31:11.485Z,23.23
2018-09-14T06:33:42.690Z,24.03
2018-09-14T06:36:13.914Z,24.93
2018-09-14T06:38:45.114Z,25.80
2018-09-14T06:41:16.374Z,26.00
2018-09-14T06:43:47.618Z,24.33
2018-09-14T06:46:18.846Z,25.97
2018-09-14T06:48:50.064Z,25.80
2018-09-14T06:51:21.285Z,25.97
2018-09-14T06:53:52.505Z,24.10
2018-09-14T06:56:23.749Z,24.70
2018-09-14T06:58:54.963Z,25.23
2018-09-14T07:01:26.186Z,24.23
2018-09-14T07:03:57.593Z,24.73
2018-09-14T07:06:28.907Z,24.10
2018-09-14T07:09:00.069Z,25.80
2018-09-14T07:11:31.337Z,25.10
2018-09-14T07:14:02.498Z,27.30
2018-09-14T07:16:33.814Z,26.70
2018-09-14T07:19:05.018Z,27.30
2018-09-14T07:21:36.281Z,26.97
2018-09-14T07:24:07.446Z,26.13
2018-09-14T07:26:38.654Z,27.10
2018-09-14T07:29:09.924Z,25.50
2018-09-14T07:31:41.191Z,26.43
2018-09-14T07:34:12.303Z,25.53
2018-09-14T07:36:43.584Z,24.70
2018-09-14T07:39:14.800Z,24.67
2018-09-14T07:41:46.011Z,24.70
2018-09-14T07:44:17.321Z,25.07
2018-09-14T07:46:48.551Z,24.53
2018-09-14T07:49:19.763Z,22.87
2018-09-14T07:51:50.985Z,24.07
2018-09-14T07:54:22.193Z,23.27
2018-09-14T07:56:53.457Z,23.90
2018-09-14T07:59:24.678Z,23.43
2018-09-14T08:01:55.888Z,22.47
2018-09-14T08:04:27.094Z,21.73
2018-09-14T08:06:58.325Z,22.77
2018-09-14T08:09:29.521Z,25.30
2018-09-14T08:12:00.789Z,23.20
2018-09-14T08:14:31.974Z,23.17
2018-09-14T08:17:03.178Z,23.00
2018-09-14T08:19:34.402Z,22.30
2018-09-14T08:22:05.604Z,22.83
2018-09-14T08:24:36.866Z,20.83
2018-09-14T08:27:08.146Z,22.80
2018-09-14T08:29:39.334Z,21.37
2018-09-14T08:32:10.552Z,22.37
2018-09-14T08:34:41.815Z,22.43
2018-09-14T08:37:13.071Z,21.23
2018-09-14T08:39:44.289Z,22.33
2018-09-14T08:42:15.505Z,22.07
2018-09-14T08:44:46.814Z,21.90
2018-09-14T08:47:18.027Z,20.47
2018-09-14T08:49:49.275Z,20.43
2018-09-14T08:52:20.489Z,21.53
2018-09-14T08:54:51.701Z,20.67
2018-09-14T08:57:23.014Z,19.63
2018-09-14T08:59:54.214Z,19.60
2018-09-14T09:02:25.422Z,19.07
2018-09-14T09:04:56.703Z,17.67
2018-09-14T09:07:27.923Z,19.93
2018-09-14T09:09:59.138Z,19.30
2018-09-14T09:12:30.357Z,18.03
2018-09-14T09:15:01.623Z,18.33
2018-09-14T09:17:32.829Z,17.80
2018-09-14T09:20:04.156Z,18.63
2018-09-14T09:22:35.399Z,18.70
2018-09-14T09:25:06.706Z,17.93
2018-09-14T09:27:37.917Z,17.23
2018-09-14T09:30:09.233Z,17.20
2018-09-14T09:32:40.441Z,18.40
2018-09-14T09:35:11.665Z,18.00
2018-09-14T09:37:42.884Z,18.40
2018-09-14T09:40:14.114Z,18.93
2018-09-14T09:42:45.316Z,20.17
2018-09-14T09:45:16.561Z,19.67
2018-09-14T09:47:47.773Z,19.50
2018-09-14T09:50:19.031Z,19.20
2018-09-14T09:52:50.265Z,19.40
2018-09-14T09:55:21.536Z,18.17
2018-09-14T09:57:52.765Z,18.90
2018-09-14T10:00:29.696Z,18.13
2018-09-14T10:03:06.705Z,17.77
2018-09-14T10:05:43.782Z,18.33
2018-09-14T10:08:15.008Z,19.37
2018-09-14T10:10:46.264Z,18.13
2018-09-14T10:13:17.480Z,17.80
2018-09-14T10:15:48.825Z,17.67
2018-09-14T10:18:20.051Z,16.60
2018-09-14T10:20:51.331Z,18.40
2018-09-14T10:23:22.546Z,19.73
2018-09-14T10:25:53.791Z,20.00
2018-09-14T10:28:25.002Z,19.25
2018-09-14T10:30:56.231Z,19.47
2018-09-14T10:33:27.456Z,19.40
2018-09-14T10:35:58.666Z,20.52
2018-09-14T10:38:29.906Z,21.37
2018-09-14T10:41:01.374Z,20.80
2018-09-14T10:43:32.597Z,18.52
2018-09-14T10:46:03.829Z,19.05
2018-09-14T10:48:35.041Z,18.75
2018-09-14T10:51:06.270Z,21.23
2018-09-14T10:53:37.497Z,19.35
2018-09-14T10:56:08.719Z,18.95
2018-09-14T10:58:42.689Z,18.50
2018-09-14T11:01:14.957Z,19.82
2018-09-14T11:03:46.177Z,19.67
2018-09-14T11:06:17.400Z,17.90
2018-09-14T11:08:48.614Z,19.02
2018-09-14T11:11:19.813Z,17.82
2018-09-14T11:13:51.136Z,17.85
2018-09-14T11:16:22.338Z,15.72
2018-09-14T11:18:53.611Z,16.10
2018-09-14T11:21:24.800Z,16.45
2018-09-14T11:23:56.032Z,16.95
2018-09-14T11:26:27.254Z,16.73
2018-09-14T11:28:58.503Z,16.27
2018-09-14T11:31:29.741Z,16.77
2018-09-14T11:34:01.041Z,17.10
2018-09-14T11:36:32.277Z,16.45
2018-09-14T11:39:03.577Z,16.15
2018-09-14T11:41:34.785Z,15.25
2018-09-14T11:44:05.994Z,16.30
2018-09-14T11:46:37.203Z,16.17
2018-09-14T11:49:08.449Z,15.78
2018-09-14T11:51:39.663Z,14.45
2018-09-14T11:54:10.922Z,14.40
2018-09-14T11:56:42.189Z,14.80
2018-09-14T11:59:13.424Z,15.78
2018-09-14T12:01:44.716Z,15.23
2018-09-14T12:04:15.993Z,14.85
2018-09-14T12:06:47.163Z,13.13
2018-09-14T12:09:18.395Z,12.73
2018-09-14T12:11:49.615Z,12.78
2018-09-14T12:14:20.817Z,14.18
2018-09-14T12:16:52.028Z,12.58
2018-09-14T12:19:23.252Z,13.78
2018-09-14T12:21:54.458Z,12.35
2018-09-14T12:24:25.657Z,12.70
2018-09-14T12:26:56.873Z,13.22
2018-09-14T12:29:28.115Z,11.90
2018-09-14T12:31:59.365Z,12.90
2018-09-14T12:34:30.583Z,12.65
2018-09-14T12:37:01.811Z,11.85
2018-09-14T12:39:33.033Z,11.53
2018-09-14T12:42:04.265Z,12.58
2018-09-14T12:44:35.490Z,12.45
2018-09-14T12:47:06.722Z,12.98
2018-09-14T12:49:37.939Z,11.25
2018-09-14T12:52:09.156Z,11.68
2018-09-14T12:54:40.362Z,11.30
2018-09-14T12:57:11.634Z,11.60
2018-09-14T12:59:42.861Z,11.00
2018-09-14T13:02:14.074Z,12.53
2018-09-14T13:04:45.299Z,12.43
2018-09-14T13:07:16.514Z,11.03
2018-09-14T13:09:47.843Z,10.32
2018-09-14T13:12:19.054Z,10.93
2018-09-14T13:14:50.311Z,10.78
2018-09-14T13:17:21.505Z,10.23
2018-09-14T13:19:52.814Z,9.55
2018-09-14T13:22:24.021Z,10.40
2018-09-14T13:24:55.258Z,10.75
2018-09-14T13:27:26.461Z,11.00
2018-09-14T13:29:57.696Z,10.58
2018-09-14T13:32:28.936Z,9.78
2018-09-14T13:35:00.147Z,15.78
2018-09-14T13:37:31.358Z,12.03
2018-09-14T13:40:02.636Z,10.25
2018-09-14T13:42:33.793Z,10.72
2018-09-14T13:45:05.036Z,10.32
2018-09-14T13:47:36.241Z,11.03
2018-09-14T13:50:07.469Z,10.15
2018-09-14T13:52:38.729Z,11.15
2018-09-14T13:55:09.939Z,10.48
2018-09-14T13:57:41.161Z,10.10
2018-09-14T14:00:12.373Z,10.20
2018-09-14T14:02:43.626Z,9.35
2018-09-14T14:05:14.844Z,9.90
2018-09-14T14:07:46.177Z,9.58
2018-09-14T14:10:17.451Z,9.65
2018-09-14T14:12:48.653Z,10.50
2018-09-14T14:15:19.881Z,9.73
2018-09-14T14:17:51.146Z,10.15
2018-09-14T14:20:22.366Z,9.83
2018-09-14T14:22:53.591Z,9.78
2018-09-14T14:25:24.802Z,9.10
2018-09-14T14:27:56.036Z,9.78
2018-09-14T14:30:27.237Z,8.98
2018-09-14T14:32:58.445Z,9.15
2018-09-14T14:35:29.650Z,8.55
2018-09-14T14:38:00.872Z,8.83
2018-09-14T14:40:32.110Z,8.68
2018-09-14T14:43:03.410Z,8.70
2018-09-14T14:45:35.451Z,7.97
2018-09-14T14:48:06.653Z,8.15
2018-09-14T14:50:37.879Z,8.93
2018-09-14T14:53:09.095Z,7.78
2018-09-14T14:55:40.342Z,8.53
2018-09-14T14:58:11.553Z,9.48
2018-09-14T15:00:42.780Z,8.43
2018-09-14T15:03:13.997Z,8.60
2018-09-14T15:05:45.247Z,8.20
2018-09-14T15:08:16.488Z,7.42
2018-09-14T15:10:48.519Z,8.43
2018-09-14T15:13:19.774Z,7.97
2018-09-14T15:15:51.039Z,8.23
2018-09-14T15:18:22.259Z,8.20
2018-09-14T15:20:53.469Z,7.67
2018-09-14T15:23:24.683Z,8.10
2018-09-14T15:25:55.908Z,7.45
2018-09-14T15:28:27.114Z,7.28
2018-09-14T15:30:58.317Z,7.78
2018-09-14T15:33:29.549Z,7.97
2018-09-14T15:36:00.847Z,7.62
2018-09-14T15:38:32.072Z,6.37
2018-09-14T15:41:03.285Z,7.03
2018-09-14T15:43:34.497Z,7.28
2018-09-14T15:46:05.727Z,7.08
2018-09-14T15:48:36.958Z,7.25
2018-09-14T15:51:08.187Z,14.98
2018-09-14T15:53:39.398Z,8.95
2018-09-14T15:56:10.617Z,7.33
2018-09-14T15:58:41.854Z,7.60
2018-09-14T16:01:13.068Z,7.78
2018-09-14T16:03:44.273Z,7.33
2018-09-14T16:06:15.482Z,7.37
2018-09-14T16:08:46.717Z,7.62
2018-09-14T16:11:18.039Z,7.58
2018-09-14T16:13:49.279Z,7.78
2018-09-14T16:16:20.500Z,7.42
2018-09-14T16:18:51.832Z,7.40
2018-09-14T16:21:23.014Z,8.20
2018-09-14T16:23:54.270Z,10.78
2018-09-14T16:26:25.559Z,11.75
2018-09-14T16:28:56.795Z,11.75
2018-09-14T16:31:28.132Z,10.72
2018-09-14T16:33:59.470Z,11.95
2018-09-14T16:36:30.689Z,11.88
2018-09-14T16:39:02.023Z,11.63
2018-09-14T16:41:33.241Z,11.33
2018-09-14T16:44:04.452Z,13.20
2018-09-14T16:46:35.807Z,12.80
2018-09-14T16:49:07.588Z,13.30
2018-09-14T16:51:38.882Z,12.95
2018-09-14T16:54:10.033Z,13.95
2018-09-14T16:56:41.308Z,13.50
2018-09-14T16:59:12.728Z,14.93
2018-09-14T17:01:43.940Z,14.85
2018-09-14T17:04:15.177Z,14.07
2018-09-14T17:06:46.522Z,14.73
2018-09-14T17:09:17.786Z,14.60
2018-09-14T17:11:49.066Z,13.83
2018-09-14T17:14:20.343Z,13.20
2018-09-14T17:16:51.586Z,14.18
2018-09-14T17:19:22.823Z,13.72
2018-09-14T17:21:54.025Z,14.57
2018-09-14T17:24:25.245Z,14.63
2018-09-14T17:26:56.453Z,16.05
2018-09-14T17:29:27.688Z,14.43
2018-09-14T17:31:58.936Z,14.65
2018-09-14T17:34:30.165Z,15.00
2018-09-14T17:37:01.722Z,15.90
2018-09-14T17:39:32.885Z,15.10
2018-09-14T17:42:04.093Z,15.47
2018-09-14T17:44:35.352Z,15.33
2018-09-14T17:47:06.579Z,15.20
2018-09-14T17:49:37.801Z,15.03
2018-09-14T17:52:09.028Z,14.90
2018-09-14T17:54:40.233Z,15.80
2018-09-14T17:57:11.444Z,14.97
2018-09-14T17:59:42.739Z,16.40
2018-09-14T18:02:14.002Z,16.60
2018-09-14T18:04:45.253Z,14.47
2018-09-14T18:07:16.554Z,14.73
2018-09-14T18:09:47.814Z,16.03
2018-09-14T18:12:19.067Z,16.30
2018-09-14T18:14:50.323Z,17.23
2018-09-14T18:17:21.557Z,15.30
2018-09-14T18:19:52.777Z,15.03
2018-09-14T18:22:23.981Z,15.20
2018-09-14T18:24:55.185Z,14.43
2018-09-14T18:27:26.430Z,14.73
2018-09-14T18:29:57.633Z,14.33
2018-09-14T18:32:28.925Z,15.27
2018-09-14T18:35:00.159Z,14.70
2018-09-14T18:37:31.369Z,14.90
2018-09-14T18:40:02.565Z,15.20
2018-09-14T18:42:33.784Z,13.93
2018-09-14T18:45:05.009Z,14.73
2018-09-14T18:47:36.396Z,14.47
2018-09-14T18:50:07.649Z,14.33
2018-09-14T18:52:38.901Z,15.03
2018-09-14T18:55:10.127Z,15.57
2018-09-14T18:57:41.421Z,15.57
2018-09-14T19:00:12.639Z,16.73
2018-09-14T19:02:43.871Z,16.27
2018-09-14T19:05:15.110Z,15.78
2018-09-14T19:07:46.285Z,15.93
2018-09-14T19:10:17.522Z,15.37
2018-09-14T19:12:48.727Z,15.50
2018-09-14T19:15:20.029Z,15.10
2018-09-14T19:17:51.227Z,14.73
2018-09-14T19:20:22.543Z,15.03
2018-09-14T19:22:53.821Z,14.47
2018-09-14T19:25:25.048Z,14.23
2018-09-14T19:27:56.310Z,14.50
2018-09-14T19:30:27.513Z,15.30
2018-09-14T19:32:58.758Z,14.37
2018-09-14T19:35:29.999Z,15.57
2018-09-14T19:38:01.253Z,14.83
2018-09-14T19:40:32.640Z,14.23
2018-09-14T19:43:03.869Z,14.53
2018-09-14T19:45:35.106Z,14.60
2018-09-14T19:48:06.317Z,14.43
2018-09-14T19:50:37.648Z,13.63
2018-09-14T19:53:08.857Z,13.67
2018-09-14T19:55:40.192Z,14.27
2018-09-14T19:58:11.505Z,14.50
2018-09-14T20:00:42.727Z,15.17
2018-09-14T20:03:13.961Z,14.00
2018-09-14T20:05:45.185Z,14.00
2018-09-14T20:08:16.952Z,13.83
2018-09-14T20:10:48.267Z,14.47
2018-09-14T20:13:19.506Z,15.20
2018-09-14T20:15:50.717Z,14.80
2018-09-14T20:18:21.958Z,14.83
2018-09-14T20:20:53.146Z,14.53
2018-09-14T20:23:24.389Z,15.37
2018-09-14T20:25:55.597Z,14.77
2018-09-14T20:28:26.822Z,13.63
2018-09-14T20:30:58.025Z,15.57
2018-09-14T20:33:29.270Z,14.23
2018-09-14T20:36:00.490Z,15.30
2018-09-14T20:38:31.756Z,14.57
2018-09-14T20:41:03.020Z,14.73
2018-09-14T20:43:34.244Z,16.80
2018-09-14T20:46:05.453Z,16.77
2018-09-14T20:48:36.745Z,15.77
2018-09-14T20:51:07.967Z,15.90
2018-09-14T20:53:39.189Z,16.10
2018-09-14T20:56:10.411Z,14.73
2018-09-14T20:58:41.650Z,14.23
2018-09-14T21:01:12.846Z,15.83
2018-09-14T21:03:44.045Z,15.60
2018-09-14T21:06:15.241Z,15.77
2018-09-14T21:08:46.450Z,15.87
2018-09-14T21:11:17.773Z,16.20
2018-09-14T21:13:48.974Z,15.60
2018-09-14T21:16:20.193Z,15.20
2018-09-14T21:18:51.419Z,16.60
2018-09-14T21:21:25.873Z,14.47
2018-09-14T21:23:57.070Z,16.50
2018-09-14T21:26:28.321Z,16.50
2018-09-14T21:28:59.572Z,15.33
2018-09-14T21:31:30.782Z,15.70
2018-09-14T21:34:02.046Z,15.53
2018-09-14T21:36:33.259Z,16.37
2018-09-14T21:39:04.470Z,16.37
2018-09-14T21:41:35.801Z,17.20
2018-09-14T21:44:07.462Z,17.67
2018-09-14T21:46:38.878Z,15.63
2018-09-14T21:49:10.100Z,15.97
2018-09-14T21:51:41.327Z,15.63
2018-09-14T21:54:12.631Z,15.47
2018-09-14T21:56:43.801Z,14.67
2018-09-14T21:59:15.106Z,14.63
2018-09-14T22:01:46.329Z,14.70
2018-09-14T22:04:17.549Z,14.67
2018-09-14T22:06:48.779Z,14.60
2018-09-14T22:09:20.111Z,14.83
2018-09-14T22:11:51.323Z,14.60
2018-09-14T22:14:22.554Z,15.20
2018-09-14T22:16:53.766Z,14.43
2018-09-14T22:19:24.987Z,15.40
2018-09-14T22:21:56.254Z,15.70
2018-09-14T22:24:27.464Z,15.63
2018-09-14T22:26:58.689Z,15.23
2018-09-14T22:29:29.889Z,16.90
2018-09-14T22:32:01.113Z,18.80
2018-09-14T22:34:32.345Z,17.87
2018-09-14T22:37:03.574Z,16.20
2018-09-14T22:39:34.803Z,16.10
2018-09-14T22:42:06.202Z,16.57
2018-09-14T22:44:37.443Z,16.00
2018-09-14T22:47:08.671Z,16.23
2018-09-14T22:49:39.868Z,15.20
2018-09-14T22:52:11.124Z,17.73
2018-09-14T22:54:42.351Z,15.43
2018-09-14T22:57:13.653Z,15.73
2018-09-14T22:59:44.865Z,15.80
2018-09-14T23:02:16.066Z,15.00
2018-09-14T23:04:47.288Z,15.90
2018-09-14T23:07:18.512Z,13.83
2018-09-14T23:09:49.790Z,14.40
2018-09-14T23:12:21.010Z,14.10
2018-09-14T23:14:52.244Z,15.20
2018-09-14T23:17:23.461Z,14.33
2018-09-14T23:19:54.657Z,14.70
2018-09-14T23:22:25.937Z,14.57
2018-09-14T23:24:57.146Z,14.47
2018-09-14T23:27:28.385Z,14.70
2018-09-14T23:29:59.602Z,14.30
2018-09-14T23:32:30.909Z,13.80
2018-09-14T23:35:02.322Z,14.20
2018-09-14T23:37:33.545Z,14.10
2018-09-14T23:40:04.769Z,13.60
2018-09-14T23:42:35.979Z,14.53
2018-09-14T23:45:07.229Z,14.47
2018-09-14T23:47:38.433Z,14.87
2018-09-14T23:50:09.673Z,15.13
2018-09-14T23:52:40.881Z,14.90
2018-09-14T23:55:12.127Z,14.73
2018-09-14T23:57:43.342Z,14.40
